Monza Express — ZDJO7 — position and weather

sailwx.info

Track history (hours):
 
Tides and Currents Weather Stations Pressure Air Temp Water Temp Dewpoint Dewpoint Depression Visibility Wind Speed Wind Dir Waves Ship Positions

Monza Express

Last reported at 2017-Oct-19 11:48 UTC. Time now 2017-Oct-19 23:44 UTC.
Position N 41°18' E 002°10'.

Length 168 m; draft 8.3 m.

Type: Cargo ship. MMSI: 236111618.

Date/timePositionNaut miles runAvg speedWind from/ knotsBaromVisibWave heightAir tempDewpointWater temp
2017-Oct-19 11:48N 41°18' E 002°10'2 6.5
2017-Oct-19 11:28N 41°16' E 002°12'816.8
2017-Oct-19 10:59N 41°09' E 002°08'817.9
2017-Oct-19 10:30N 41°02' E 002°01'918.0
2017-Oct-19 10:00N 40°54' E 001°56'21318.3
2017-Oct-18 22:21N 37°48' W 000°18'718.4
2017-Oct-18 21:58N 37°42' W 000°23'818.5
2017-Oct-18 21:30N 37°35' W 000°29'1018.8
2017-Oct-18 21:00N 37°28' W 000°38'918.7
2017-Oct-18 20:30N 37°22' W 000°46'918.7
2017-Oct-18 20:01N 37°15' W 000°54'1018.7
2017-Oct-18 19:30N 37°09' W 001°03'20917.5
2017-Oct-18 07:32N 36°00' W 005°10'019.0
2017-Oct-18 07:30N 36°00' W 005°10'1019.6
2017-Oct-18 07:00N 35°58' W 005°22'815.6
2017-Oct-18 06:30N 35°54' W 005°30'0 0.0
2017-Oct-17 02:03N 35°53' W 005°30'0 0.0
2017-Oct-17 01:51N 35°53' W 005°30'0 0.0
2017-Oct-17 01:30N 35°53' W 005°30'0 0.1
2017-Oct-17 00:59N 35°54' W 005°30'1 2.4
2017-Oct-17 00:28N 35°55' W 005°31'3 7.0
2017-Oct-17 00:00N 35°54' W 005°34'2 0.2
2017-Oct-16 13:40N 35°52' W 005°36'6 1.2
2017-Oct-16 09:00N 35°56' W 005°31'612.8
2017-Oct-16 08:31N 35°59' W 005°24'815.3
2017-Oct-16 08:00N 36°02' W 005°16'22016.9
2017-Oct-15 19:01N 37°17' W 000°58'118.5
2017-Oct-15 18:59N 37°17' W 000°58'918.3
2017-Oct-15 18:30N 37°23' W 000°49'918.1
2017-Oct-15 18:00N 37°29' W 000°41'918.4
2017-Oct-15 17:30N 37°35' W 000°33'918.3
2017-Oct-15 17:00N 37°43' W 000°26'918.4
2017-Oct-15 16:30N 37°51' W 000°20'918.3
2017-Oct-15 16:00N 37°58' W 000°13'2718.3
2017-Oct-15 14:31N 38°21' E 000°06'177 5.6
2017-Oct-14 06:40N 40°56' E 001°58'417.5
2017-Oct-14 06:27N 40°58' E 002°02'14414.7
2017-Oct-13 20:38N 42°37' E 004°23'715.4
2017-Oct-13 20:09N 42°42' E 004°30'715.3
2017-Oct-13 19:44N 42°47' E 004°36'815.1
2017-Oct-13 19:13N 42°53' E 004°43'714.6
2017-Oct-13 18:46N 42°58' E 004°50'615.3
2017-Oct-13 18:23N 43°02' E 004°55'1015.4
2017-Oct-13 17:44N 43°09' E 005°04'314.9
2017-Oct-13 17:30N 43°12' E 005°08'714.1
2017-Oct-13 17:00N 43°18' E 005°12'611.7
2017-Oct-13 16:30N 43°21' E 005°19'2 3.8
2017-Oct-13 15:59N 43°20' E 005°21'0 0.0
2017-Oct-13 15:26N 43°20' E 005°21'0 0.0
2017-Oct-13 14:57N 43°20' E 005°21'0 0.0
2017-Oct-13 14:30N 43°20' E 005°21'0 0.0
2017-Oct-13 13:57N 43°20' E 005°21'0 0.0
2017-Oct-13 13:30N 43°20' E 005°21'0 0.0
2017-Oct-13 12:57N 43°20' E 005°21'0 0.0
2017-Oct-13 12:30N 43°20' E 005°21'0 0.0
2017-Oct-13 11:57N 43°20' E 005°21'0 0.0
2017-Oct-13 11:27N 43°20' E 005°21'0 0.0
2017-Oct-13 11:00N 43°20' E 005°21'0 0.1
2017-Oct-13 10:30N 43°20' E 005°21'3 5.1
2017-Oct-13 10:00N 43°21' E 005°18'4 8.7
2017-Oct-13 09:30N 43°18' E 005°13'612.6
2017-Oct-13 09:00N 43°12' E 005°10'815.3
2017-Oct-13 08:31N 43°08' E 005°19'917.3
2017-Oct-13 08:00N 43°05' E 005°30'917.7
2017-Oct-13 07:30N 43°02' E 005°42'918.8
2017-Oct-13 07:00N 42°59' E 005°54'918.8
2017-Oct-13 06:30N 42°56' E 006°06'919.0
2017-Oct-13 06:01N 42°54' E 006°19'3418.8
2017-Oct-13 04:13N 42°57' E 007°05'518.2
2017-Oct-13 03:58N 42°58' E 007°11'1418.1
2017-Oct-13 03:12N 42°59' E 007°30'7217.8
2017-Oct-12 23:08N 43°06' E 009°09'317.5
2017-Oct-12 22:57N 43°06' E 009°13'1017.9
2017-Oct-12 22:22N 43°08' E 009°27'717.8
2017-Oct-12 22:00N 43°06' E 009°35'1017.6
2017-Oct-12 21:26N 42°56' E 009°40'1217.9
2017-Oct-12 20:46N 42°46' E 009°48'2517.6
2017-Oct-12 19:22N 42°37' E 010°19'718.3
2017-Oct-12 19:00N 42°35' E 010°27'  
2017-Oct-10 14:00N 36°46' E 013°38'612.8
2017-Oct-10 13:30N 36°45' E 013°46'713.7
2017-Oct-10 13:00N 36°43' E 013°54'713.7
2017-Oct-10 12:30N 36°42' E 014°02'713.6
2017-Oct-10 12:00N 36°41' E 014°11'713.8
2017-Oct-10 11:30N 36°39' E 014°19'714.3
2017-Oct-10 11:00N 36°38' E 014°28'714.0
2017-Oct-10 10:30N 36°37' E 014°37'  
Track history (hours):
 
Tides and Currents Weather Stations Pressure Air Temp Water Temp Dewpoint Dewpoint Depression Visibility Wind Speed Wind Dir Waves Ship Positions

Monza Express

Last reported at 2017-Oct-19 11:48 UTC. Time now 2017-Oct-19 23:44 UTC.
Position N 41°18' E 002°10'.

Length 168 m; draft 8.3 m.

Type: Cargo ship. MMSI: 236111618.

Date/timePositionNaut miles runAvg speedWind from/ knotsBaromVisibWave heightAir tempDewpointWater temp
2017-Oct-19 11:48N 41°18' E 002°10'2 6.5
2017-Oct-19 11:28N 41°16' E 002°12'816.8
2017-Oct-19 10:59N 41°09' E 002°08'817.9
2017-Oct-19 10:30N 41°02' E 002°01'918.0
2017-Oct-19 10:00N 40°54' E 001°56'21318.3
2017-Oct-18 22:21N 37°48' W 000°18'718.4
2017-Oct-18 21:58N 37°42' W 000°23'818.5
2017-Oct-18 21:30N 37°35' W 000°29'1018.8
2017-Oct-18 21:00N 37°28' W 000°38'918.7
2017-Oct-18 20:30N 37°22' W 000°46'918.7
2017-Oct-18 20:01N 37°15' W 000°54'1018.7
2017-Oct-18 19:30N 37°09' W 001°03'20917.5
2017-Oct-18 07:32N 36°00' W 005°10'019.0
2017-Oct-18 07:30N 36°00' W 005°10'1019.6
2017-Oct-18 07:00N 35°58' W 005°22'815.6
2017-Oct-18 06:30N 35°54' W 005°30'0 0.0
2017-Oct-17 02:03N 35°53' W 005°30'0 0.0
2017-Oct-17 01:51N 35°53' W 005°30'0 0.0
2017-Oct-17 01:30N 35°53' W 005°30'0 0.1
2017-Oct-17 00:59N 35°54' W 005°30'1 2.4
2017-Oct-17 00:28N 35°55' W 005°31'3 7.0
2017-Oct-17 00:00N 35°54' W 005°34'2 0.2
2017-Oct-16 13:40N 35°52' W 005°36'6 1.2
2017-Oct-16 09:00N 35°56' W 005°31'612.8
2017-Oct-16 08:31N 35°59' W 005°24'815.3
2017-Oct-16 08:00N 36°02' W 005°16'22016.9
2017-Oct-15 19:01N 37°17' W 000°58'118.5
2017-Oct-15 18:59N 37°17' W 000°58'918.3
2017-Oct-15 18:30N 37°23' W 000°49'918.1
2017-Oct-15 18:00N 37°29' W 000°41'918.4
2017-Oct-15 17:30N 37°35' W 000°33'918.3
2017-Oct-15 17:00N 37°43' W 000°26'918.4
2017-Oct-15 16:30N 37°51' W 000°20'918.3
2017-Oct-15 16:00N 37°58' W 000°13'2718.3
2017-Oct-15 14:31N 38°21' E 000°06'177 5.6
2017-Oct-14 06:40N 40°56' E 001°58'417.5
2017-Oct-14 06:27N 40°58' E 002°02'14414.7
2017-Oct-13 20:38N 42°37' E 004°23'715.4
2017-Oct-13 20:09N 42°42' E 004°30'715.3
2017-Oct-13 19:44N 42°47' E 004°36'815.1
2017-Oct-13 19:13N 42°53' E 004°43'714.6
2017-Oct-13 18:46N 42°58' E 004°50'615.3
2017-Oct-13 18:23N 43°02' E 004°55'1015.4
2017-Oct-13 17:44N 43°09' E 005°04'314.9
2017-Oct-13 17:30N 43°12' E 005°08'714.1
2017-Oct-13 17:00N 43°18' E 005°12'611.7
2017-Oct-13 16:30N 43°21' E 005°19'2 3.8
2017-Oct-13 15:59N 43°20' E 005°21'0 0.0
2017-Oct-13 15:26N 43°20' E 005°21'0 0.0
2017-Oct-13 14:57N 43°20' E 005°21'0 0.0
2017-Oct-13 14:30N 43°20' E 005°21'0 0.0
2017-Oct-13 13:57N 43°20' E 005°21'0 0.0
2017-Oct-13 13:30N 43°20' E 005°21'0 0.0
2017-Oct-13 12:57N 43°20' E 005°21'0 0.0
2017-Oct-13 12:30N 43°20' E 005°21'0 0.0
2017-Oct-13 11:57N 43°20' E 005°21'0 0.0
2017-Oct-13 11:27N 43°20' E 005°21'0 0.0
2017-Oct-13 11:00N 43°20' E 005°21'0 0.1
2017-Oct-13 10:30N 43°20' E 005°21'3 5.1
2017-Oct-13 10:00N 43°21' E 005°18'4 8.7
2017-Oct-13 09:30N 43°18' E 005°13'612.6
2017-Oct-13 09:00N 43°12' E 005°10'815.3
2017-Oct-13 08:31N 43°08' E 005°19'917.3
2017-Oct-13 08:00N 43°05' E 005°30'917.7
2017-Oct-13 07:30N 43°02' E 005°42'918.8
2017-Oct-13 07:00N 42°59' E 005°54'918.8
2017-Oct-13 06:30N 42°56' E 006°06'919.0
2017-Oct-13 06:01N 42°54' E 006°19'3418.8
2017-Oct-13 04:13N 42°57' E 007°05'518.2
2017-Oct-13 03:58N 42°58' E 007°11'1418.1
2017-Oct-13 03:12N 42°59' E 007°30'7217.8
2017-Oct-12 23:08N 43°06' E 009°09'317.5
2017-Oct-12 22:57N 43°06' E 009°13'1017.9
2017-Oct-12 22:22N 43°08' E 009°27'717.8
2017-Oct-12 22:00N 43°06' E 009°35'1017.6
2017-Oct-12 21:26N 42°56' E 009°40'1217.9
2017-Oct-12 20:46N 42°46' E 009°48'2517.6
2017-Oct-12 19:22N 42°37' E 010°19'718.3
2017-Oct-12 19:00N 42°35' E 010°27'  
2017-Oct-10 14:00N 36°46' E 013°38'612.8
2017-Oct-10 13:30N 36°45' E 013°46'713.7
2017-Oct-10 13:00N 36°43' E 013°54'713.7
2017-Oct-10 12:30N 36°42' E 014°02'713.6
2017-Oct-10 12:00N 36°41' E 014°11'713.8
2017-Oct-10 11:30N 36°39' E 014°19'714.3
2017-Oct-10 11:00N 36°38' E 014°28'714.0
2017-Oct-10 10:30N 36°37' E 014°37'  

Dump ship's entire track history